Cruz Bay, VI

4:21 AM AST on August 22, 2014 (GMT -0400)
Roosevelt Roads Ns | Change Station
CLOSE
Current Station
Airport
Location: Roosevelt Roads,
Elevation: 39 ft
Nearby Weather Stations
Active Advisory: Flash Flood Watch

Elev 39 ft 18.26 °N, 65.64 °W | Updated 2 minutes ago

Light Rain
Light Rain
80 °F
Feels Like 86 °F
N
0
Wind Variable Wind from North

Today
High -- | Low -- °F
--% Chance of Precip.
Yesterday
High -- | Low -- °F
Precip. -- in
6:02 AM 6:41 PM
Waning Crescent, 9% visible
Pressure 29.87 in
Visibility 10.0 miles
Clouds Mostly Cloudy 1400 ft
Mostly Cloudy 2500 ft
Mostly Cloudy 4900 ft
Heat Index 86 °F
Dew Point 77 °F
Humidity 90%
Rainfall 0.01 in
Snow Depth Not available.
UV 0 out of 12
Pollen Not available.
Air Quality Not available.
Flu Activity Not available.
SPECI TJNR 220819Z AUTO 00000KT 10SM -RA BKN014 BKN025 BKN049 27/25 A2987 RMK AO2 RAB11 P0000 T02670250 $

More Conditions Fewer Conditions

Pressure 29.87 in
Visibility 10.0 miles
Clouds Mostly Cloudy 1400 ft
Mostly Cloudy 2500 ft
Mostly Cloudy 4900 ft
Heat Index 86 °F
Dew Point 77 °F
Humidity 90%
Rainfall 0.01 in
Snow Depth Not available.
UV 0 out of 12
Pollen Not available.
Air Quality Not available.
Flu Activity Not available.
SPECI TJNR 220819Z AUTO 00000KT 10SM -RA BKN014 BKN025 BKN049 27/25 A2987 RMK AO2 RAB11 P0000 T02670250 $

More Conditions Fewer Conditions

10-Day Weather Forecast

Almanac

Astronomy

Aug. 22, 2014 Rise Set
Actual Time 6:02 AM AST 6:41 PM AST
Civil Twilight 5:40 AM AST 7:03 PM AST
Nautical Twilight 5:14 AM AST 7:29 PM AST
Astronomical Twilight 4:47 AM AST 7:56 PM AST
Moon 3:32 AM AST 4:38 PM AST
Length of Visible Light 13h 23m
Length of Day
12h 38m
Tomorrow will be 0m 57s shorter.
Waning Crescent, 9% of the Moon is Illuminated
Today
Waning Crescent
Aug 25
New
Sep 2
First Quarter
Sep 8
Full
Sep 15
Last Quarter

Community

WunderPhotos

Upload Photos

1,746,144 photos uploaded!

Nearby

Snow Depth

Station Depth Elevation
No new snow has been reported.

Earthquake Activity

City Distance Mag. Time & Date
No recent earthquake activity has been reported nearby.
Minimum magnitude displayed is 2.5.

Coastal Water Temperatures

Place Temperature
Yabucoa Harbor, PR 84.0 °F
Esperanza, PR 84.9 °F
Charlotte Amalie, VI 84.9 °F

Nearby Weather Stations